Time;durP1;ratioP1;P1;durP2;ratioP2;P2;SDS_P1;SDS_P2;PMS_P1;PMS_P2;Temp;Humidity;BMP_temperature;BMP_pressure;BME280_temperature;BME280_humidity;BME280_pressure;Samples;Min_cycle;Max_cycle;Signal;HPM_P1;HPM_P2
2022/06/29 00:02:21;;;;;;;0.45;0.30;;;;;;;-148.56;100.00;61375.16;5007405;28;20033;-33
2022/06/29 00:04:46;;;;;;;0.30;0.30;;;;;;;-148.56;100.00;61375.16;5009494;28;20037;-35
2022/06/29 00:07:12;;;;;;;0.40;0.40;;;;;;;-148.56;100.00;61375.16;5007096;28;20083;-39
2022/06/29 00:09:37;;;;;;;0.40;0.40;;;;;;;-148.56;100.00;61375.16;5008711;28;20403;-34
2022/06/29 00:12:03;;;;;;;0.30;0.30;;;;;;;-148.56;100.00;61375.16;5002430;28;20091;-37
2022/06/29 00:14:28;;;;;;;0.30;0.30;;;;;;;-148.56;100.00;61375.16;5008862;28;20036;-38
2022/06/29 00:16:54;;;;;;;0.30;0.30;;;;;;;-148.56;100.00;61375.16;5007037;28;20040;-29
2022/06/29 00:19:19;;;;;;;0.30;0.30;;;;;;;-148.56;100.00;61375.16;5006073;28;20030;-34
2022/06/29 00:21:44;;;;;;;0.20;0.20;;;;;;;-148.56;100.00;61375.16;5003813;28;20519;-37
2022/06/29 00:24:10;;;;;;;0.32;0.32;;;;;;;-148.56;100.00;61375.16;5006612;28;20033;-32
2022/06/29 00:26:35;;;;;;;0.25;0.25;;;;;;;-148.56;100.00;61375.16;5004816;28;20037;-34
2022/06/29 00:29:01;;;;;;;0.20;0.20;;;;;;;-148.56;100.00;61375.16;5009620;28;20029;-33
2022/06/29 00:31:26;;;;;;;0.22;0.22;;;;;;;-148.56;100.00;61375.16;5004674;28;20580;-36
2022/06/29 00:33:51;;;;;;;0.20;0.20;;;;;;;-148.56;100.00;61375.16;5006836;28;20094;-36
2022/06/29 00:36:17;;;;;;;0.20;0.20;;;;;;;-148.56;100.00;61375.16;5003999;28;20831;-35
2022/06/29 00:38:42;;;;;;;0.30;0.30;;;;;;;-148.56;100.00;61375.16;5009111;28;20033;-31
2022/06/29 00:41:07;;;;;;;0.30;0.30;;;;;;;-148.56;100.00;61375.16;5006030;28;20082;-33
2022/06/29 00:43:42;;;;;;;0.38;0.38;;;;;;;-148.56;100.00;61375.16;5002783;28;20073;-38
2022/06/29 00:46:07;;;;;;;0.30;0.30;;;;;;;-148.56;100.00;61375.16;5007116;28;20030;-34
2022/06/29 00:48:33;;;;;;;0.55;0.40;;;;;;;-148.56;100.00;61375.16;5007200;28;20065;-38
2022/06/29 00:50:59;;;;;;;0.30;0.30;;;;;;;-148.56;100.00;61375.16;5004286;28;20208;-33
2022/06/29 00:53:25;;;;;;;0.28;0.28;;;;;;;-148.56;100.00;61375.16;5004815;28;20033;-36
2022/06/29 00:55:51;;;;;;;0.38;0.38;;;;;;;-148.56;100.00;61375.16;5008931;28;20036;-35
2022/06/29 00:58:16;;;;;;;0.20;0.20;;;;;;;-148.56;100.00;61375.16;5004553;28;20065;-33
2022/06/29 01:00:42;;;;;;;0.25;0.25;;;;;;;-148.56;100.00;61375.16;5005943;28;20520;-37
2022/06/29 01:03:08;;;;;;;0.30;0.30;;;;;;;-148.56;100.00;61375.16;5004935;28;20141;-34
2022/06/29 01:05:33;;;;;;;0.38;0.38;;;;;;;-148.56;100.00;61375.16;5007381;28;20412;-37
2022/06/29 01:07:59;;;;;;;0.30;0.30;;;;;;;-148.56;100.00;61375.16;5004838;28;20037;-34
2022/06/29 01:10:24;;;;;;;0.30;0.30;;;;;;;-148.56;100.00;61375.16;5003832;28;20046;-33
2022/06/29 01:12:51;;;;;;;0.30;0.30;;;;;;;-148.56;100.00;61375.16;5005400;28;20036;-39
2022/06/29 01:15:16;;;;;;;0.20;0.20;;;;;;;-148.56;100.00;61375.16;5008368;28;20049;-34
2022/06/29 01:17:42;;;;;;;0.30;0.30;;;;;;;-148.56;100.00;61375.16;5004650;28;20439;-37
2022/06/29 01:20:08;;;;;;;0.30;0.30;;;;;;;-148.56;100.00;61375.16;5009891;28;20472;-38
2022/06/29 01:22:33;;;;;;;0.90;0.32;;;;;;;-148.56;100.00;61375.16;5001053;28;20103;-34
2022/06/29 01:24:59;;;;;;;0.40;0.40;;;;;;;-148.56;100.00;61375.16;5006416;28;20116;-32
2022/06/29 01:27:24;;;;;;;0.30;0.30;;;;;;;-148.56;100.00;61375.16;5008535;28;20033;-33
2022/06/29 01:29:50;;;;;;;0.15;0.15;;;;;;;-148.56;100.00;61375.16;5004381;28;20724;-37
2022/06/29 01:32:15;;;;;;;0.30;0.25;;;;;;;-148.56;100.00;61375.16;5007310;28;20042;-35
2022/06/29 01:34:41;;;;;;;0.30;0.30;;;;;;;-148.56;100.00;61375.16;5010689;28;20053;-31
2022/06/29 01:37:06;;;;;;;1.13;0.50;;;;;;;-148.56;100.00;61375.16;5006329;28;20684;-37
2022/06/29 01:39:32;;;;;;;0.43;0.43;;;;;;;-148.56;100.00;61375.16;5011092;28;20164;-34
2022/06/29 01:41:57;;;;;;;0.30;0.30;;;;;;;-148.56;100.00;61375.16;5007841;28;20037;-37
2022/06/29 01:44:23;;;;;;;0.40;0.40;;;;;;;-148.56;100.00;61375.16;5003046;28;20033;-34
2022/06/29 01:46:48;;;;;;;0.30;0.30;;;;;;;-148.56;100.00;61375.16;5010482;28;20048;-37
2022/06/29 01:49:14;;;;;;;0.30;0.30;;;;;;;-148.56;100.00;61375.16;5010064;28;20099;-38
2022/06/29 01:51:39;;;;;;;0.30;0.30;;;;;;;-148.56;100.00;61375.16;5007177;28;20029;-32
2022/06/29 01:54:05;;;;;;;0.30;0.30;;;;;;;-148.56;100.00;61375.16;5009670;28;21114;-37
2022/06/29 01:56:30;;;;;;;0.20;0.20;;;;;;;-148.56;100.00;61375.16;5012878;28;20033;-32
2022/06/29 01:58:55;;;;;;;0.40;0.40;;;;;;;-148.56;100.00;61375.16;5008697;28;20072;-32
2022/06/29 02:01:21;;;;;;;0.35;0.35;;;;;;;-148.56;100.00;61375.16;5011233;28;20033;-37
2022/06/29 02:03:46;;;;;;;0.40;0.40;;;;;;;-148.56;100.00;61375.16;5006619;28;20037;-36
2022/06/29 02:06:12;;;;;;;0.30;0.30;;;;;;;-148.56;100.00;61375.16;5011018;28;20539;-35
2022/06/29 02:08:37;;;;;;;0.30;0.30;;;;;;;-148.56;100.00;61375.16;5009555;28;20025;-36
2022/06/29 02:11:02;;;;;;;0.40;0.40;;;;;;;-148.56;100.00;61375.16;5007365;28;20034;-38
2022/06/29 02:13:28;;;;;;;0.28;0.28;;;;;;;-148.56;100.00;61375.16;5008181;28;20471;-32
2022/06/29 02:15:53;;;;;;;0.30;0.30;;;;;;;-148.56;100.00;61375.16;5010334;28;20040;-34
2022/06/29 02:18:19;;;;;;;0.20;0.20;;;;;;;-148.56;100.00;61375.16;5009305;28;20053;-32
2022/06/29 02:20:44;;;;;;;0.20;0.20;;;;;;;-148.56;100.00;61375.16;5010088;28;20029;-36
2022/06/29 02:23:09;;;;;;;0.35;0.35;;;;;;;-148.56;100.00;61375.16;5005801;28;20030;-36
2022/06/29 02:25:35;;;;;;;0.30;0.30;;;;;;;-148.56;100.00;61375.16;5009392;28;20531;-36
2022/06/29 02:28:00;;;;;;;0.20;0.20;;;;;;;-148.56;100.00;61375.16;5006467;28;20092;-34
2022/06/29 02:35:53;;;;;;;0.30;0.30;;;;;;;-148.56;100.00;61375.16;5010773;28;20427;-35
2022/06/29 02:38:19;;;;;;;0.30;0.30;;;;;;;-148.56;100.00;61375.16;5007670;28;20034;-35
2022/06/29 02:40:44;;;;;;;0.30;0.30;;;;;;;-148.56;100.00;61375.16;5007490;28;20114;-34
2022/06/29 02:43:10;;;;;;;0.30;0.25;;;;;;;-148.56;100.00;61375.16;5006697;28;20025;-36
2022/06/29 02:45:35;;;;;;;0.20;0.20;;;;;;;-148.56;100.00;61375.16;5009042;28;20415;-35
2022/06/29 02:48:01;;;;;;;0.30;0.22;;;;;;;-148.56;100.00;61375.16;5007139;28;20713;-33
2022/06/29 02:50:26;;;;;;;0.30;0.30;;;;;;;-148.56;100.00;61375.16;5006927;28;20037;-31
2022/06/29 02:52:52;;;;;;;0.30;0.30;;;;;;;-148.56;100.00;61375.16;5008377;28;20022;-38
2022/06/29 02:55:17;;;;;;;0.30;0.30;;;;;;;-148.56;100.00;61375.16;5007346;28;20029;-36
2022/06/29 02:57:42;;;;;;;1.00;0.60;;;;;;;-148.56;100.00;61375.16;5010841;28;20531;-34
2022/06/29 03:00:08;;;;;;;0.30;0.30;;;;;;;-148.56;100.00;61375.16;5008740;28;20084;-36
2022/06/29 03:02:33;;;;;;;0.30;0.30;;;;;;;-148.56;100.00;61375.16;5010255;28;20095;-39
2022/06/29 03:04:59;;;;;;;0.30;0.30;;;;;;;-148.56;100.00;61375.16;5004965;28;20034;-34
2022/06/29 03:07:26;;;;;;;0.30;0.30;;;;;;;-148.56;100.00;61375.16;5006856;28;20651;-37
2022/06/29 03:09:51;;;;;;;0.22;0.22;;;;;;;-148.56;100.00;61375.16;5010825;28;20025;-36
2022/06/29 03:12:17;;;;;;;0.30;0.30;;;;;;;-148.56;100.00;61375.16;5010167;28;20867;-33
2022/06/29 03:14:42;;;;;;;0.35;0.35;;;;;;;-148.56;100.00;61375.16;5007408;28;20814;-38
2022/06/29 03:17:07;;;;;;;0.30;0.30;;;;;;;-148.56;100.00;61375.16;5008424;28;20030;-34
2022/06/29 03:19:34;;;;;;;0.20;0.20;;;;;;;-148.56;100.00;61375.16;5009012;28;20041;-33
2022/06/29 03:21:59;;;;;;;0.22;0.22;;;;;;;-148.56;100.00;61375.16;5006419;28;20057;-35
2022/06/29 03:24:24;;;;;;;0.20;0.20;;;;;;;-148.56;100.00;61375.16;5006424;28;20033;-35
2022/06/29 03:26:50;;;;;;;0.30;0.30;;;;;;;-148.56;100.00;61375.16;5008204;28;20535;-37
2022/06/29 03:29:15;;;;;;;0.28;0.28;;;;;;;-148.56;100.00;61375.16;5008491;28;20029;-33
2022/06/29 03:31:41;;;;;;;0.30;0.30;;;;;;;-148.56;100.00;61375.16;5008164;28;20713;-34
2022/06/29 03:34:06;;;;;;;0.20;0.20;;;;;;;-148.56;100.00;61375.16;5006694;28;20029;-34
2022/06/29 03:36:32;;;;;;;0.40;0.40;;;;;;;-148.56;100.00;61375.16;5008127;28;20800;-32
2022/06/29 03:38:57;;;;;;;0.45;0.40;;;;;;;-148.56;100.00;61375.16;5009588;28;20048;-36
2022/06/29 03:41:22;;;;;;;0.22;0.22;;;;;;;-148.56;100.00;61375.16;5009361;28;20503;-32
2022/06/29 03:43:48;;;;;;;0.30;0.30;;;;;;;-148.56;100.00;61375.16;5002947;28;20025;-37
2022/06/29 03:46:13;;;;;;;0.20;0.20;;;;;;;-148.56;100.00;61375.16;5008154;28;20029;-36
2022/06/29 03:48:39;;;;;;;0.20;0.20;;;;;;;-148.56;100.00;61375.16;5007022;28;20568;-36
2022/06/29 03:51:04;;;;;;;0.30;0.30;;;;;;;-148.56;100.00;61375.16;4983859;28;20045;-36
2022/06/29 03:53:29;;;;;;;0.28;0.28;;;;;;;-148.56;100.00;61375.16;4987794;28;20041;-33
2022/06/29 03:55:56;;;;;;;0.20;0.20;;;;;;;-148.56;100.00;61375.16;4988936;28;20029;-38
2022/06/29 03:58:21;;;;;;;0.30;0.30;;;;;;;-148.56;100.00;61375.16;4990075;28;21407;-34
2022/06/29 04:00:47;;;;;;;0.30;0.30;;;;;;;-148.56;100.00;61375.16;4989770;28;20025;-35
2022/06/29 04:03:12;;;;;;;0.40;0.40;;;;;;;-148.56;100.00;61375.16;4982029;28;20033;-38
2022/06/29 04:05:38;;;;;;;0.30;0.30;;;;;;;-148.56;100.00;61375.16;4987210;28;20553;-32
2022/06/29 04:08:03;;;;;;;0.20;0.20;;;;;;;-148.56;100.00;61375.16;4988756;28;20033;-33
2022/06/29 04:10:28;;;;;;;0.30;0.30;;;;;;;-148.56;100.00;61375.16;4989392;28;20206;-34
2022/06/29 04:12:54;;;;;;;0.20;0.20;;;;;;;-148.56;100.00;61375.16;4991312;28;20079;-34
2022/06/29 04:15:19;;;;;;;0.20;0.20;;;;;;;-148.56;100.00;61375.16;4985061;28;20050;-36
2022/06/29 04:17:45;;;;;;;0.17;0.17;;;;;;;-148.56;100.00;61375.16;4993052;28;20853;-35
2022/06/29 04:21:05;;;;;;;0.30;0.30;;;;;;;-148.56;100.00;61375.16;4990336;28;20657;-31
2022/06/29 04:23:00;;;;;;;0.20;0.20;;;;;;;-148.56;100.00;61375.16;4986943;28;20168;-34
2022/06/29 04:25:25;;;;;;;0.30;0.30;;;;;;;-148.56;100.00;61375.16;4985601;28;20555;-36
2022/06/29 04:27:50;;;;;;;0.40;0.40;;;;;;;-148.56;100.00;61375.16;4986232;28;20042;-34
2022/06/29 04:30:16;;;;;;;0.20;0.20;;;;;;;-148.56;100.00;61375.16;4990114;28;20030;-38
2022/06/29 04:32:41;;;;;;;0.22;0.22;;;;;;;-148.56;100.00;61375.16;4988530;28;20150;-38
2022/06/29 04:35:07;;;;;;;0.63;0.40;;;;;;;-148.56;100.00;61375.16;4987940;28;20033;-32
2022/06/29 04:37:32;;;;;;;0.30;0.30;;;;;;;-148.56;100.00;61375.16;4990259;28;20124;-32
2022/06/29 04:40:00;;;;;;;0.30;0.30;;;;;;;-148.56;100.00;61375.16;4988561;28;20026;-36
2022/06/29 04:42:26;;;;;;;0.35;0.35;;;;;;;-148.56;100.00;61375.16;4995684;28;20037;-35
2022/06/29 04:44:52;;;;;;;0.30;0.30;;;;;;;-148.56;100.00;61375.16;5007852;28;20022;-36
2022/06/29 04:47:18;;;;;;;0.30;0.30;;;;;;;-148.56;100.00;61375.16;5006480;28;20176;-33
2022/06/29 04:49:43;;;;;;;0.90;0.30;;;;;;;-148.56;100.00;61375.16;5004579;28;20591;-34
2022/06/29 04:52:09;;;;;;;0.20;0.20;;;;;;;-148.56;100.00;61375.16;5008912;28;20021;-35
2022/06/29 04:54:34;;;;;;;0.55;0.20;;;;;;;-148.56;100.00;61375.16;5001070;28;20033;-34
2022/06/29 04:56:59;;;;;;;1.55;0.30;;;;;;;-148.56;100.00;61375.16;5005355;28;20033;-32
2022/06/29 04:59:25;;;;;;;0.85;0.50;;;;;;;-148.56;100.00;61375.16;5004602;28;20480;-34
2022/06/29 05:01:50;;;;;;;0.32;0.32;;;;;;;-148.56;100.00;61375.16;5007124;28;20044;-37
2022/06/29 05:04:16;;;;;;;0.30;0.30;;;;;;;-148.56;100.00;61375.16;4994886;28;20029;-34
2022/06/29 05:06:41;;;;;;;0.30;0.30;;;;;;;-148.56;100.00;61375.16;5004294;28;20692;-37
2022/06/29 05:09:06;;;;;;;0.22;0.22;;;;;;;-148.56;100.00;61375.16;5006497;28;20034;-37
2022/06/29 05:11:32;;;;;;;0.22;0.22;;;;;;;-148.56;100.00;61375.16;5011950;28;20047;-34
2022/06/29 05:13:57;;;;;;;0.30;0.30;;;;;;;-148.56;100.00;61375.16;5011226;28;20040;-38
2022/06/29 05:16:23;;;;;;;0.40;0.40;;;;;;;-148.56;100.00;61375.16;5008517;28;20032;-35
2022/06/29 05:18:49;;;;;;;0.25;0.25;;;;;;;-148.56;100.00;61375.16;5009273;28;20017;-32
2022/06/29 05:21:15;;;;;;;0.30;0.30;;;;;;;-148.56;100.00;61375.16;5012501;28;20045;-34
2022/06/29 05:23:41;;;;;;;0.30;0.30;;;;;;;-148.56;100.00;61375.16;5004836;28;20682;-37
2022/06/29 05:26:06;;;;;;;0.25;0.25;;;;;;;-148.56;100.00;61375.16;5010516;28;20069;-33
2022/06/29 05:28:33;;;;;;;0.38;0.22;;;;;;;-148.56;100.00;61375.16;5009801;28;20034;-38
2022/06/29 05:30:58;;;;;;;0.50;0.50;;;;;;;-148.56;100.00;61375.16;5007342;28;20037;-37
2022/06/29 05:33:24;;;;;;;0.30;0.30;;;;;;;-148.56;100.00;61375.16;5009994;28;20064;-34
2022/06/29 05:35:49;;;;;;;0.40;0.40;;;;;;;-148.56;100.00;61375.16;5009898;28;20052;-35
2022/06/29 05:38:14;;;;;;;0.40;0.32;;;;;;;-148.56;100.00;61375.16;5006095;28;20025;-32
2022/06/29 05:40:42;;;;;;;0.32;0.32;;;;;;;-148.56;100.00;61375.16;5009998;28;20026;-37
2022/06/29 05:43:07;;;;;;;0.25;0.25;;;;;;;-148.56;100.00;61375.16;4976442;28;20057;-34
2022/06/29 05:45:33;;;;;;;0.22;0.22;;;;;;;-148.56;100.00;61375.16;4966333;28;20044;-37
2022/06/29 05:47:58;;;;;;;0.20;0.20;;;;;;;-148.56;100.00;61375.16;4962050;28;20080;-36
2022/06/29 05:50:24;;;;;;;0.35;0.35;;;;;;;-148.56;100.00;61375.16;4962976;28;20494;-39
2022/06/29 05:52:50;;;;;;;0.45;0.40;;;;;;;-148.56;100.00;61375.16;4976944;28;20032;-40
2022/06/29 05:55:15;;;;;;;0.28;0.28;;;;;;;-148.56;100.00;61375.16;4973048;28;20263;-36
2022/06/29 05:57:40;;;;;;;0.35;0.35;;;;;;;-148.56;100.00;61375.16;4971031;28;20033;-38
2022/06/29 06:00:06;;;;;;;0.43;0.40;;;;;;;-148.56;100.00;61375.16;4974555;28;20115;-36
2022/06/29 06:02:32;;;;;;;0.30;0.30;;;;;;;-148.56;100.00;61375.16;4978494;28;20644;-39
2022/06/29 06:04:57;;;;;;;0.20;0.20;;;;;;;-148.56;100.00;61375.16;4965985;28;20155;-37
2022/06/29 06:07:22;;;;;;;0.20;0.20;;;;;;;-148.56;100.00;61375.16;4973212;28;20547;-35
2022/06/29 06:09:48;;;;;;;0.30;0.30;;;;;;;-148.56;100.00;61375.16;4974505;28;20049;-38
2022/06/29 06:12:13;;;;;;;0.40;0.32;;;;;;;-148.56;100.00;61375.16;4966637;28;20746;-38
2022/06/29 06:14:39;;;;;;;0.30;0.30;;;;;;;-148.56;100.00;61375.16;4962698;28;20033;-36
2022/06/29 06:17:04;;;;;;;0.22;0.22;;;;;;;-148.56;100.00;61375.16;4963762;28;20041;-38
2022/06/29 06:19:29;;;;;;;0.55;0.30;;;;;;;-148.56;100.00;61375.16;4969963;28;20041;-34
2022/06/29 06:21:55;;;;;;;0.30;0.30;;;;;;;-148.56;100.00;61375.16;4967072;28;20045;-34
2022/06/29 06:24:20;;;;;;;0.38;0.30;;;;;;;-148.56;100.00;61375.16;4968040;28;20849;-37
2022/06/29 06:26:46;;;;;;;0.47;0.40;;;;;;;-148.56;100.00;61375.16;4965713;28;20125;-38
2022/06/29 06:29:11;;;;;;;0.30;0.30;;;;;;;-148.56;100.00;61375.16;4966622;28;20030;-36
2022/06/29 06:31:37;;;;;;;0.50;0.50;;;;;;;-148.56;100.00;61375.16;4969910;28;20029;-38
2022/06/29 06:34:02;;;;;;;0.40;0.40;;;;;;;-148.56;100.00;61375.16;4963403;28;20393;-36
2022/06/29 06:36:28;;;;;;;0.30;0.25;;;;;;;-148.56;100.00;61375.16;4963656;28;20042;-38
2022/06/29 06:38:53;;;;;;;0.20;0.20;;;;;;;-148.56;100.00;61375.16;4974133;28;21029;-39
2022/06/29 06:41:21;;;;;;;0.30;0.30;;;;;;;-148.56;100.00;61375.16;4984272;28;20695;-36
2022/06/29 06:43:50;;;;;;;0.40;0.32;;;;;;;-148.56;100.00;61375.16;4997977;28;20551;-34
2022/06/29 06:46:16;;;;;;;0.30;0.30;;;;;;;-148.56;100.00;61375.16;5008273;28;20574;-37
2022/06/29 06:48:43;;;;;;;0.40;0.30;;;;;;;-148.56;100.00;61375.16;5013098;28;20121;-34
2022/06/29 06:51:10;;;;;;;0.30;0.20;;;;;;;-148.56;100.00;61375.16;5005540;28;20041;-34
2022/06/29 06:53:35;;;;;;;0.52;0.40;;;;;;;-148.56;100.00;61375.16;5012037;28;20507;-34
2022/06/29 06:56:01;;;;;;;0.52;0.30;;;;;;;-148.56;100.00;61375.16;5012118;28;20041;-31
2022/06/29 06:58:26;;;;;;;0.30;0.30;;;;;;;-148.56;100.00;61375.16;5012710;28;20090;-37
2022/06/29 07:00:51;;;;;;;0.30;0.30;;;;;;;-148.56;100.00;61375.16;5012466;28;20032;-37
2022/06/29 07:03:17;;;;;;;0.80;0.40;;;;;;;-148.56;100.00;61375.16;5002246;28;20037;-36
2022/06/29 07:05:42;;;;;;;0.40;0.40;;;;;;;-148.56;100.00;61375.16;5005671;28;20832;-36
2022/06/29 07:08:07;;;;;;;0.30;0.30;;;;;;;-148.56;100.00;61375.16;5006222;28;20037;-33
2022/06/29 07:10:33;;;;;;;0.57;0.30;;;;;;;-148.56;100.00;61375.16;5009082;28;20033;-33
2022/06/29 07:12:58;;;;;;;0.20;0.20;;;;;;;-148.56;100.00;61375.16;5006416;28;21033;-38
2022/06/29 07:15:24;;;;;;;0.25;0.25;;;;;;;-148.56;100.00;61375.16;5009032;28;20031;-30
2022/06/29 07:17:49;;;;;;;0.30;0.30;;;;;;;-148.56;100.00;61375.16;5006043;28;20036;-36
2022/06/29 07:20:15;;;;;;;0.30;0.30;;;;;;;-148.56;100.00;61375.16;5005257;28;20036;-30
2022/06/29 07:22:40;;;;;;;0.32;0.32;;;;;;;-148.56;100.00;61375.16;5006575;28;20046;-33
2022/06/29 07:25:06;;;;;;;0.30;0.30;;;;;;;-148.56;100.00;61375.16;5006511;28;20023;-31
2022/06/29 07:27:31;;;;;;;0.80;0.20;;;;;;;-148.56;100.00;61375.16;5009561;28;20774;-31
2022/06/29 07:29:56;;;;;;;0.45;0.30;;;;;;;-148.56;100.00;61375.16;5006326;28;20037;-35
2022/06/29 07:32:22;;;;;;;0.30;0.30;;;;;;;-148.56;100.00;61375.16;5002465;28;20037;-33
2022/06/29 07:34:47;;;;;;;0.20;0.20;;;;;;;-148.56;100.00;61375.16;5000756;28;20541;-36
2022/06/29 07:37:13;;;;;;;0.40;0.40;;;;;;;-148.56;100.00;61375.16;5003183;28;20037;-37
2022/06/29 07:39:38;;;;;;;0.45;0.28;;;;;;;-148.56;100.00;61375.16;5004288;28;20029;-34
2022/06/29 07:42:04;;;;;;;0.38;0.38;;;;;;;-148.56;100.00;61375.16;5001576;28;20029;-37
2022/06/29 07:44:30;;;;;;;0.30;0.30;;;;;;;-148.56;100.00;61375.16;5002850;28;20077;-36
2022/06/29 07:46:55;;;;;;;0.43;0.32;;;;;;;-148.56;100.00;61375.16;5004974;28;20101;-38
2022/06/29 07:49:21;;;;;;;0.30;0.30;;;;;;;-148.56;100.00;61375.16;5009638;28;20105;-32
2022/06/29 07:51:47;;;;;;;0.30;0.30;;;;;;;-148.56;100.00;61375.16;5004560;28;20642;-34
2022/06/29 07:54:13;;;;;;;0.25;0.25;;;;;;;-148.56;100.00;61375.16;5007405;28;20096;-31
2022/06/29 07:56:38;;;;;;;0.50;0.30;;;;;;;-148.56;100.00;61375.16;5008785;28;20026;-38
2022/06/29 07:59:04;;;;;;;0.28;0.28;;;;;;;-148.56;100.00;61375.16;5006877;28;20686;-34
2022/06/29 08:01:29;;;;;;;0.63;0.30;;;;;;;-148.56;100.00;61375.16;5004908;28;20029;-33
2022/06/29 08:03:55;;;;;;;0.30;0.30;;;;;;;-148.56;100.00;61375.16;4997423;28;20036;-35
2022/06/29 08:06:21;;;;;;;0.38;0.38;;;;;;;-148.56;100.00;61375.16;5006585;28;20061;-34
2022/06/29 08:08:47;;;;;;;0.30;0.30;;;;;;;-148.56;100.00;61375.16;5009751;28;20037;-37
2022/06/29 08:11:12;;;;;;;0.45;0.45;;;;;;;-148.56;100.00;61375.16;5010189;28;20048;-31
2022/06/29 08:13:38;;;;;;;0.40;0.40;;;;;;;-148.56;100.00;61375.16;5006723;28;20024;-38
2022/06/29 08:16:04;;;;;;;0.50;0.50;;;;;;;-148.56;100.00;61375.16;5004270;28;20030;-33
2022/06/29 08:18:30;;;;;;;0.30;0.30;;;;;;;-148.56;100.00;61375.16;5008579;28;20098;-31
2022/06/29 08:20:55;;;;;;;0.25;0.25;;;;;;;-148.56;100.00;61375.16;5005135;28;20033;-33
2022/06/29 08:23:21;;;;;;;0.40;0.40;;;;;;;-148.56;100.00;61375.16;5000939;28;20572;-39
2022/06/29 08:25:46;;;;;;;0.30;0.30;;;;;;;-148.56;100.00;61375.16;5005801;28;20677;-32
2022/06/29 08:28:11;;;;;;;0.13;0.13;;;;;;;-148.56;100.00;61375.16;5007693;28;20036;-38
2022/06/29 08:30:37;;;;;;;0.30;0.30;;;;;;;-148.56;100.00;61375.16;5007767;28;20028;-33
2022/06/29 08:33:02;;;;;;;0.95;0.38;;;;;;;-148.56;100.00;61375.16;5003614;28;20042;-37
2022/06/29 08:35:28;;;;;;;0.30;0.30;;;;;;;-148.56;100.00;61375.16;5007362;28;20579;-34
2022/06/29 08:37:53;;;;;;;0.40;0.40;;;;;;;-148.56;100.00;61375.16;5006960;28;20033;-35
2022/06/29 08:40:18;;;;;;;0.60;0.30;;;;;;;-148.56;100.00;61375.16;5009615;28;20025;-38
2022/06/29 08:42:47;;;;;;;0.38;0.30;;;;;;;-148.56;100.00;61375.16;4997142;28;20036;-34
2022/06/29 08:45:13;;;;;;;0.40;0.40;;;;;;;-148.56;100.00;61375.16;5007144;28;20057;-32
2022/06/29 08:47:40;;;;;;;0.50;0.40;;;;;;;-148.56;100.00;61375.16;5002922;28;20116;-31
2022/06/29 08:50:06;;;;;;;0.40;0.40;;;;;;;-148.56;100.00;61375.16;5003246;28;20029;-38
2022/06/29 08:52:37;;;;;;;0.30;0.30;;;;;;;-148.56;100.00;61375.16;5005953;28;20753;-36
2022/06/29 08:55:07;;;;;;;0.30;0.30;;;;;;;-148.56;100.00;61375.16;5006520;28;20108;-36
2022/06/29 08:57:36;;;;;;;0.40;0.30;;;;;;;-148.56;100.00;61375.16;5008822;28;20129;-38
2022/06/29 09:00:02;;;;;;;0.50;0.38;;;;;;;-148.56;100.00;61375.16;5003295;28;20029;-33
2022/06/29 09:02:27;;;;;;;0.40;0.40;;;;;;;-148.56;100.00;61375.16;5006342;28;20022;-37
2022/06/29 09:04:54;;;;;;;0.68;0.40;;;;;;;-148.56;100.00;61375.16;4999663;28;20546;-35
2022/06/29 09:07:20;;;;;;;0.40;0.40;;;;;;;-148.56;100.00;61375.16;5011137;28;20480;-33
2022/06/29 09:10:12;;;;;;;0.30;0.30;;;;;;;-148.56;100.00;61375.16;5007985;28;20036;-35
2022/06/29 09:12:37;;;;;;;0.70;0.25;;;;;;;-148.56;100.00;61375.16;5005722;28;20056;-37
2022/06/29 09:15:05;;;;;;;0.30;0.30;;;;;;;-148.56;100.00;61375.16;5003699;28;20623;-32
2022/06/29 09:17:31;;;;;;;0.20;0.20;;;;;;;-148.56;100.00;61375.16;5006688;28;20472;-34
2022/06/29 09:19:56;;;;;;;0.47;0.47;;;;;;;-148.56;100.00;61375.16;5007467;28;20037;-33
2022/06/29 09:22:22;;;;;;;0.35;0.35;;;;;;;-148.56;100.00;61375.16;5005588;28;20034;-37
2022/06/29 09:24:47;;;;;;;0.30;0.30;;;;;;;-148.56;100.00;61375.16;5007586;28;20032;-36
2022/06/29 09:27:13;;;;;;;0.30;0.30;;;;;;;-148.56;100.00;61375.16;5005089;28;20026;-34
2022/06/29 09:29:41;;;;;;;0.30;0.30;;;;;;;-148.56;100.00;61375.16;5007396;28;20029;-36
2022/06/29 09:32:08;;;;;;;0.30;0.30;;;;;;;-148.56;100.00;61375.16;5010021;28;20041;-35
2022/06/29 09:34:43;;;;;;;0.60;0.50;;;;;;;-148.56;100.00;61375.16;5007286;28;20021;-37
2022/06/29 09:37:12;;;;;;;0.40;0.40;;;;;;;-148.56;100.00;61375.16;5004804;28;20555;-40
2022/06/29 09:39:48;;;;;;;0.30;0.30;;;;;;;-148.56;100.00;61375.16;5006631;28;20606;-34
2022/06/29 09:42:24;;;;;;;0.30;0.30;;;;;;;-148.56;100.00;61375.16;5005523;28;20432;-37
2022/06/29 09:44:50;;;;;;;0.20;0.20;;;;;;;-148.56;100.00;61375.16;5004969;28;20037;-34
2022/06/29 09:47:16;;;;;;;0.38;0.38;;;;;;;-148.56;100.00;61375.16;5009512;28;20076;-33
2022/06/29 09:49:46;;;;;;;0.30;0.30;;;;;;;-148.56;100.00;61375.16;5004037;28;20037;-38
2022/06/29 09:52:12;;;;;;;0.73;0.40;;;;;;;-148.56;100.00;61375.16;5002092;28;20030;-34
2022/06/29 09:54:55;;;;;;;0.20;0.20;;;;;;;-148.56;100.00;61375.16;5003607;28;20064;-37
2022/06/29 09:57:24;;;;;;;0.30;0.30;;;;;;;-148.56;100.00;61375.16;5011354;28;20447;-36
2022/06/29 10:02:39;;;;;;;0.50;0.35;;;;;;;-148.56;100.00;61375.16;5007249;28;20044;-39
2022/06/29 10:05:20;;;;;;;0.22;0.22;;;;;;;-148.56;100.00;61375.16;5000595;28;20036;-35
2022/06/29 10:07:47;;;;;;;0.40;0.40;;;;;;;-148.56;100.00;61375.16;5006304;28;20603;-37
2022/06/29 10:10:14;;;;;;;0.75;0.20;;;;;;;-148.56;100.00;61375.16;5008249;28;20038;-33
2022/06/29 10:16:09;;;;;;;0.30;0.30;;;;;;;-148.56;100.00;61375.16;5009871;28;20059;-37
2022/06/29 10:18:58;;;;;;;0.35;0.35;;;;;;;-148.56;100.00;61375.16;5007782;28;20061;-34
2022/06/29 10:21:25;;;;;;;0.30;0.30;;;;;;;-148.56;100.00;61375.16;5006695;28;20116;-42
2022/06/29 10:23:55;;;;;;;0.22;0.22;;;;;;;-148.56;100.00;61375.16;5003011;28;20165;-36
2022/06/29 10:26:35;;;;;;;0.35;0.35;;;;;;;-148.56;100.00;61375.16;5007354;28;20036;-35
2022/06/29 10:29:09;;;;;;;0.30;0.30;;;;;;;-148.56;100.00;61375.16;5005150;28;20037;-35
2022/06/29 10:31:49;;;;;;;0.40;0.32;;;;;;;-148.56;100.00;61375.16;5010170;28;20083;-34
2022/06/29 10:34:34;;;;;;;0.30;0.30;;;;;;;-148.56;100.00;61375.16;5005496;28;20044;-34
2022/06/29 10:37:02;;;;;;;0.40;0.40;;;;;;;-148.56;100.00;61375.16;5010201;28;20048;-32
2022/06/29 10:39:49;;;;;;;0.45;0.45;;;;;;;-148.56;100.00;61375.16;5009633;28;20037;-31
2022/06/29 10:45:16;;;;;;;0.63;0.47;;;;;;;-148.56;100.00;61375.16;5010523;28;20044;-34
2022/06/29 10:47:57;;;;;;;1.00;0.30;;;;;;;-148.56;100.00;61375.16;5008658;28;20025;-33
2022/06/29 10:50:26;;;;;;;0.40;0.40;;;;;;;-148.56;100.00;61375.16;5007167;28;20597;-36
2022/06/29 10:52:54;;;;;;;0.35;0.30;;;;;;;-148.56;100.00;61375.16;5009092;28;20052;-34
2022/06/29 10:55:20;;;;;;;0.38;0.38;;;;;;;-148.56;100.00;61375.16;5008803;28;20699;-34
2022/06/29 10:57:45;;;;;;;0.30;0.30;;;;;;;-148.56;100.00;61375.16;5008915;28;20060;-42
2022/06/29 11:00:20;;;;;;;0.70;0.70;;;;;;;-148.56;100.00;61375.16;5007827;28;20061;-37
2022/06/29 11:02:45;;;;;;;0.20;0.20;;;;;;;-148.56;100.00;61375.16;5025813;28;20061;-34
2022/06/29 11:05:11;;;;;;;1.58;0.40;;;;;;;-148.56;100.00;61375.16;5003518;28;20029;-34
2022/06/29 11:13:28;;;;;;;0.30;0.30;;;;;;;-148.56;100.00;61375.16;4967106;28;20042;-37
2022/06/29 11:15:55;;;;;;;0.30;0.30;;;;;;;-148.56;100.00;61375.16;5002171;28;20200;-34
2022/06/29 11:18:21;;;;;;;0.40;0.40;;;;;;;-148.56;100.00;61375.16;5009972;28;20041;-36
2022/06/29 11:20:50;;;;;;;0.30;0.30;;;;;;;-148.56;100.00;61375.16;5009445;28;20030;-31
2022/06/29 11:23:27;;;;;;;0.40;0.40;;;;;;;-148.56;100.00;61375.16;5005952;28;20040;-34
2022/06/29 11:25:54;;;;;;;0.52;0.30;;;;;;;-148.56;100.00;61375.16;5007246;28;20806;-37
2022/06/29 11:28:20;;;;;;;0.40;0.40;;;;;;;-148.56;100.00;61375.16;5005380;28;20033;-34